Time;durP1;ratioP1;P1;durP2;ratioP2;P2;SDS_P1;SDS_P2;PMS_P1;PMS_P2;Temp;Humidity;BMP_temperature;BMP_pressure;BME280_temperature;BME280_humidity;BME280_pressure;Samples;Min_cycle;Max_cycle;Signal;HPM_P1;HPM_P2
2022/07/25 00:00:18;;;;;;;9.70;6.65;;;;;;;29.17;70.29;100946.31;7390778;19;20056;-44
2022/07/25 00:02:49;;;;;;;9.15;6.68;;;;;;;29.12;70.92;100937.09;7392942;19;20089;-46
2022/07/25 00:05:18;;;;;;;8.20;6.38;;;;;;;29.09;70.79;100930.22;7392944;19;20025;-47
2022/07/25 00:07:47;;;;;;;8.38;6.20;;;;;;;29.00;71.07;100921.38;7392826;19;20011;-44
2022/07/25 00:10:16;;;;;;;8.27;6.07;;;;;;;28.98;70.95;100928.81;7391731;19;20019;-44
2022/07/25 00:12:46;;;;;;;8.30;5.93;;;;;;;28.98;71.52;100926.13;7392415;19;20491;-47
2022/07/25 00:15:15;;;;;;;7.57;5.75;;;;;;;28.95;71.65;100922.97;7395657;19;20022;-50
2022/07/25 00:17:44;;;;;;;7.65;5.75;;;;;;;28.94;71.55;100927.53;7392831;19;20019;-45
2022/07/25 00:20:16;;;;;;;7.25;5.72;;;;;;;28.96;71.64;100917.38;7391580;19;20025;-44
2022/07/25 00:22:45;;;;;;;8.82;5.72;;;;;;;28.94;70.91;100916.75;7392683;19;20021;-44
2022/07/25 00:25:14;;;;;;;8.15;6.15;;;;;;;28.97;71.08;100907.41;7394726;19;20007;-50
2022/07/25 00:27:43;;;;;;;9.10;7.07;;;;;;;28.87;71.88;100915.81;7392781;19;20038;-44
2022/07/25 00:30:12;;;;;;;8.75;6.50;;;;;;;28.91;71.31;100902.78;7391772;19;20014;-45
2022/07/25 00:32:41;;;;;;;6.70;5.70;;;;;;;28.86;71.89;100900.66;7391052;19;20018;-44
2022/07/25 00:35:10;;;;;;;12.85;6.68;;;;;;;28.83;71.43;100907.25;7392811;19;20021;-52
2022/07/25 00:37:42;;;;;;;7.88;7.00;;;;;;;28.85;71.06;100912.44;7396708;19;20014;-53
2022/07/25 00:40:12;;;;;;;8.20;6.78;;;;;;;28.86;71.31;100902.50;7390175;19;20022;-51
2022/07/25 00:42:41;;;;;;;7.47;6.03;;;;;;;28.81;71.42;100890.44;7396119;19;20352;-50
2022/07/25 00:45:11;;;;;;;7.50;6.00;;;;;;;28.81;71.60;100889.56;7391514;19;20015;-54
2022/07/25 00:47:40;;;;;;;8.43;5.97;;;;;;;28.73;72.35;100885.13;7396928;19;20006;-55
2022/07/25 00:50:10;;;;;;;7.85;6.00;;;;;;;28.72;72.82;100888.00;7392869;19;20010;-51
2022/07/25 00:52:41;;;;;;;7.32;6.10;;;;;;;28.69;72.35;100885.69;7392724;19;20014;-53
2022/07/25 00:55:10;;;;;;;7.35;6.50;;;;;;;28.67;72.96;100882.31;7392519;19;20104;-51
2022/07/25 00:57:39;;;;;;;8.50;5.75;;;;;;;28.62;72.75;100875.63;7393133;19;20458;-50
2022/07/25 01:00:11;;;;;;;7.70;5.97;;;;;;;28.54;73.17;100867.63;7391452;19;20021;-50
2022/07/25 01:02:40;;;;;;;9.93;6.30;;;;;;;28.54;73.51;100864.91;7393820;19;20010;-49
2022/07/25 01:05:10;;;;;;;8.50;5.95;;;;;;;28.50;73.39;100860.91;7392042;19;20765;-49
2022/07/25 01:07:42;;;;;;;14.40;6.28;;;;;;;28.51;73.08;100862.56;7396517;19;20022;-50
2022/07/25 01:10:12;;;;;;;13.38;6.90;;;;;;;28.53;73.11;100857.84;7393548;19;20708;-51
2022/07/25 01:12:51;;;;;;;8.65;6.45;;;;;;;28.46;73.83;100855.03;7391889;19;20349;-51
2022/07/25 01:15:20;;;;;;;9.80;6.88;;;;;;;28.49;74.24;100846.59;7393420;19;20019;-55
2022/07/25 01:17:49;;;;;;;7.85;6.53;;;;;;;28.51;73.04;100842.88;7391906;19;20022;-53
2022/07/25 01:20:22;;;;;;;9.43;6.15;;;;;;;28.43;73.08;100846.50;7389614;19;20010;-52
2022/07/25 01:22:52;;;;;;;6.88;6.18;;;;;;;28.38;74.65;100843.53;7393287;19;20011;-53
2022/07/25 01:25:22;;;;;;;9.27;6.75;;;;;;;28.27;74.68;100840.25;7393677;19;20021;-51
2022/07/25 01:27:52;;;;;;;10.48;6.60;;;;;;;28.28;74.63;100833.00;7390593;19;20026;-54
2022/07/25 01:30:22;;;;;;;7.13;6.32;;;;;;;28.31;74.52;100838.03;7389332;19;20025;-53
2022/07/25 01:32:51;;;;;;;7.60;6.80;;;;;;;28.25;75.28;100834.19;7392167;19;20019;-49
2022/07/25 01:35:22;;;;;;;8.05;6.45;;;;;;;28.20;74.94;100831.25;7390345;19;20029;-55
2022/07/25 01:37:51;;;;;;;7.70;6.95;;;;;;;28.16;75.47;100829.94;7395213;19;20479;-54
2022/07/25 01:40:20;;;;;;;7.18;6.40;;;;;;;28.15;74.70;100817.47;7389004;19;20021;-52
2022/07/25 01:42:49;;;;;;;9.93;7.38;;;;;;;28.14;74.95;100816.66;7390392;19;20010;-50
2022/07/25 01:45:18;;;;;;;9.65;7.40;;;;;;;28.11;73.76;100816.16;7389250;19;20402;-54
2022/07/25 01:47:47;;;;;;;10.93;6.88;;;;;;;28.13;74.40;100820.34;7390709;19;20040;-55
2022/07/25 01:50:16;;;;;;;8.23;7.07;;;;;;;28.09;74.84;100819.03;7393600;19;20017;-49
2022/07/25 01:52:47;;;;;;;7.55;6.75;;;;;;;28.10;75.39;100822.59;7389733;19;20122;-54
2022/07/25 01:55:16;;;;;;;12.63;7.57;;;;;;;28.14;75.87;100810.41;7389644;19;20029;-53
2022/07/25 01:57:45;;;;;;;8.20;7.32;;;;;;;28.16;76.22;100812.94;7390622;19;20014;-51
2022/07/25 02:00:16;;;;;;;8.10;7.30;;;;;;;28.19;76.13;100815.25;7392008;19;20015;-54
2022/07/25 02:02:46;;;;;;;11.10;6.78;;;;;;;28.10;75.03;100811.81;7389986;19;20014;-53
2022/07/25 02:05:16;;;;;;;9.65;7.30;;;;;;;28.07;75.41;100815.72;7392405;19;20022;-53
2022/07/25 02:07:48;;;;;;;9.73;7.40;;;;;;;28.07;75.25;100807.63;7389399;19;20022;-51
2022/07/25 02:10:17;;;;;;;9.30;6.97;;;;;;;28.09;75.37;100810.13;7389075;19;20014;-54
2022/07/25 02:12:46;;;;;;;10.07;7.45;;;;;;;28.09;75.01;100796.66;7389592;19;20470;-53
2022/07/25 02:15:14;;;;;;;8.63;7.30;;;;;;;28.04;75.47;100799.91;7391896;19;20018;-53
2022/07/25 02:17:43;;;;;;;10.27;7.68;;;;;;;28.08;75.52;100789.59;7391217;19;20355;-55
2022/07/25 02:20:13;;;;;;;8.65;7.65;;;;;;;28.07;75.92;100790.59;7390706;19;20011;-53
2022/07/25 02:22:42;;;;;;;9.18;7.72;;;;;;;28.09;75.79;100784.00;7390019;19;20017;-54
2022/07/25 02:25:14;;;;;;;8.40;7.50;;;;;;;28.09;75.49;100789.41;7389021;19;20015;-55
2022/07/25 02:27:42;;;;;;;10.70;7.75;;;;;;;28.10;75.84;100776.78;7390172;19;20010;-51
2022/07/25 02:30:12;;;;;;;9.32;7.60;;;;;;;28.09;75.58;100769.72;7390216;19;20006;-53
2022/07/25 02:32:41;;;;;;;8.50;7.70;;;;;;;28.07;75.93;100769.06;7394071;19;20010;-50
2022/07/25 02:35:11;;;;;;;11.95;8.02;;;;;;;28.02;75.10;100758.84;7389759;19;20018;-53
2022/07/25 02:37:40;;;;;;;9.68;8.05;;;;;;;27.99;75.39;100756.53;7389492;19;20018;-55
2022/07/25 02:40:11;;;;;;;11.10;8.50;;;;;;;27.96;75.97;100756.84;7389525;19;20006;-53
2022/07/25 02:42:42;;;;;;;11.82;8.38;;;;;;;27.92;74.56;100755.56;7399420;19;20014;-51
2022/07/25 02:45:12;;;;;;;9.50;8.50;;;;;;;27.87;75.86;100750.72;7398731;19;20014;-54
2022/07/25 02:47:41;;;;;;;9.88;8.02;;;;;;;27.88;77.18;100747.03;7399089;19;20018;-53
2022/07/25 02:50:11;;;;;;;9.20;8.10;;;;;;;27.86;75.35;100743.66;7399143;19;20647;-55
2022/07/25 02:52:39;;;;;;;18.38;15.48;;;;;;;27.85;75.76;100751.91;7400779;19;20026;-50
2022/07/25 02:55:10;;;;;;;12.73;11.25;;;;;;;27.87;75.72;100760.63;7395807;19;20023;-51
2022/07/25 02:57:41;;;;;;;9.73;8.40;;;;;;;27.79;76.21;100745.41;7397196;19;20486;-52
2022/07/25 03:00:11;;;;;;;12.10;8.73;;;;;;;27.77;76.34;100742.91;7394813;19;20011;-52
2022/07/25 03:02:40;;;;;;;11.63;9.05;;;;;;;27.74;76.49;100735.19;7399689;19;20011;-54
2022/07/25 03:05:11;;;;;;;12.18;10.02;;;;;;;27.71;76.44;100727.50;7396344;19;20022;-50
2022/07/25 03:07:40;;;;;;;11.52;9.60;;;;;;;27.69;77.47;100731.38;7396585;19;20010;-49
2022/07/25 03:10:11;;;;;;;10.70;9.00;;;;;;;27.70;77.60;100739.28;7395588;19;20015;-54
2022/07/25 03:12:45;;;;;;;13.40;9.85;;;;;;;27.73;77.25;100722.75;7395786;19;20665;-50
2022/07/25 03:15:15;;;;;;;11.07;8.75;;;;;;;27.76;77.29;100725.06;7397799;19;20021;-52
2022/07/25 03:17:44;;;;;;;14.27;9.32;;;;;;;27.70;76.72;100724.97;7395266;19;20006;-53
2022/07/25 03:20:13;;;;;;;11.63;9.52;;;;;;;27.70;76.62;100727.69;7394634;19;20011;-54
2022/07/25 03:22:42;;;;;;;12.35;9.30;;;;;;;27.72;77.47;100722.94;7395629;19;20098;-51
2022/07/25 03:25:11;;;;;;;13.32;9.93;;;;;;;27.67;76.74;100719.94;7394304;19;20094;-52
2022/07/25 03:27:43;;;;;;;11.77;9.68;;;;;;;27.61;76.99;100719.66;7372168;19;20026;-55
2022/07/25 03:30:13;;;;;;;10.75;9.65;;;;;;;27.67;76.40;100726.19;7398378;19;20006;-53
2022/07/25 03:32:42;;;;;;;12.38;9.98;;;;;;;27.67;76.52;100725.31;7396990;19;20030;-48
2022/07/25 03:35:11;;;;;;;11.02;9.73;;;;;;;27.61;76.72;100725.06;7396734;19;20335;-50
2022/07/25 03:37:40;;;;;;;12.50;9.60;;;;;;;27.61;77.23;100718.81;7398383;19;20010;-50
2022/07/25 03:40:10;;;;;;;13.38;10.38;;;;;;;27.56;78.16;100708.59;7392856;19;20042;-50
2022/07/25 03:42:39;;;;;;;12.05;10.10;;;;;;;27.57;77.76;100706.75;7396179;19;20049;-53
2022/07/25 03:45:11;;;;;;;12.98;10.35;;;;;;;27.58;76.91;100705.72;7398110;19;20026;-59
2022/07/25 03:47:40;;;;;;;12.50;10.77;;;;;;;27.53;77.53;100697.38;7394071;19;20018;-51
2022/07/25 03:50:10;;;;;;;12.68;10.20;;;;;;;27.55;77.46;100708.78;7393274;19;20017;-49
2022/07/25 03:52:39;;;;;;;12.52;10.77;;;;;;;27.58;76.42;100694.97;7396860;19;20022;-53
2022/07/25 03:55:11;;;;;;;12.63;10.90;;;;;;;27.54;76.56;100707.97;7397278;19;20081;-54
2022/07/25 03:57:40;;;;;;;12.05;10.57;;;;;;;27.53;76.67;100703.59;7394259;19;20013;-52
2022/07/25 04:00:13;;;;;;;12.52;10.52;;;;;;;27.51;76.99;100707.47;7393095;19;20340;-54
2022/07/25 04:02:42;;;;;;;13.27;10.25;;;;;;;27.53;76.64;100703.59;7399283;19;20017;-53
2022/07/25 04:05:12;;;;;;;13.63;10.63;;;;;;;27.48;77.13;100707.84;7393138;19;20763;-49
2022/07/25 04:07:41;;;;;;;12.60;10.07;;;;;;;27.48;77.15;100699.78;7394223;19;20019;-51
2022/07/25 04:10:11;;;;;;;13.57;10.95;;;;;;;27.51;77.16;100694.00;7395766;19;20011;-53
2022/07/25 04:12:40;;;;;;;12.55;10.50;;;;;;;27.49;77.79;100696.91;7394286;19;20523;-50
2022/07/25 04:15:12;;;;;;;12.63;10.93;;;;;;;27.48;76.88;100695.22;7397058;19;20014;-55
2022/07/25 04:17:44;;;;;;;14.93;11.18;;;;;;;27.49;78.13;100693.38;7395427;19;20015;-54
2022/07/25 04:20:14;;;;;;;13.20;10.48;;;;;;;27.55;77.92;100695.31;7393315;19;20014;-51
2022/07/25 04:22:42;;;;;;;12.70;10.43;;;;;;;27.58;77.20;100695.81;7397346;19;20022;-54
2022/07/25 04:25:11;;;;;;;11.40;10.20;;;;;;;27.57;77.51;100696.81;7392439;19;20022;-50
2022/07/25 04:27:40;;;;;;;12.00;10.52;;;;;;;27.52;77.18;100687.63;7398241;19;20011;-51
2022/07/25 04:30:15;;;;;;;13.23;10.65;;;;;;;27.48;77.70;100691.69;7392676;19;20018;-55
2022/07/25 04:32:44;;;;;;;13.95;10.48;;;;;;;27.50;76.50;100682.44;7393371;19;20043;-53
2022/07/25 04:35:13;;;;;;;13.57;10.82;;;;;;;27.52;77.23;100676.84;7392830;19;20019;-51
2022/07/25 04:37:42;;;;;;;13.27;11.30;;;;;;;27.49;78.26;100678.06;7395755;19;20010;-52
2022/07/25 04:40:12;;;;;;;13.90;10.57;;;;;;;27.56;78.01;100675.47;7392151;19;20015;-55
2022/07/25 04:42:41;;;;;;;16.17;11.15;;;;;;;27.56;77.28;100675.47;7392662;19;20014;-53
2022/07/25 04:45:13;;;;;;;17.42;11.65;;;;;;;27.54;76.43;100672.13;7391931;19;20018;-55
2022/07/25 04:47:42;;;;;;;20.75;11.48;;;;;;;27.52;76.88;100669.59;7392635;19;20355;-54
2022/07/25 04:50:12;;;;;;;15.60;11.90;;;;;;;27.53;76.49;100675.84;7397157;19;20010;-52
2022/07/25 04:52:40;;;;;;;12.65;11.35;;;;;;;27.55;76.66;100671.09;7394204;19;20014;-50
2022/07/25 04:55:10;;;;;;;13.00;11.40;;;;;;;27.49;76.09;100672.66;7393798;19;20014;-51
2022/07/25 04:57:39;;;;;;;15.30;11.23;;;;;;;27.49;77.47;100666.47;7393037;19;20071;-52
2022/07/25 05:00:13;;;;;;;15.45;12.05;;;;;;;27.51;75.81;100659.88;7395384;19;20035;-58
2022/07/25 05:02:42;;;;;;;14.20;10.82;;;;;;;27.52;75.86;100674.16;7393536;19;20526;-50
2022/07/25 05:05:11;;;;;;;12.52;11.18;;;;;;;27.53;76.84;100678.53;7392868;19;20030;-51
2022/07/25 05:07:40;;;;;;;13.13;11.00;;;;;;;27.54;77.83;100672.97;7391929;19;20014;-52
2022/07/25 05:10:10;;;;;;;14.25;11.35;;;;;;;27.53;77.25;100670.47;7395496;19;20408;-52
2022/07/25 05:12:39;;;;;;;14.50;10.95;;;;;;;27.55;77.06;100673.78;7392112;19;20021;-51
2022/07/25 05:15:09;;;;;;;17.08;11.90;;;;;;;27.59;76.05;100675.09;7395309;19;20010;-49
2022/07/25 05:17:40;;;;;;;14.48;11.68;;;;;;;27.61;76.42;100670.34;7394718;19;20010;-54
2022/07/25 05:20:11;;;;;;;14.45;11.90;;;;;;;27.72;75.25;100672.59;7392645;19;20018;-52
2022/07/25 05:22:40;;;;;;;15.60;12.05;;;;;;;27.74;75.43;100664.34;7391142;19;20026;-53
2022/07/25 05:25:11;;;;;;;18.27;12.15;;;;;;;27.86;74.55;100664.72;7395035;19;20018;-54
2022/07/25 05:27:41;;;;;;;15.30;12.52;;;;;;;27.79;75.86;100665.47;7392060;19;20025;-52
2022/07/25 05:30:12;;;;;;;16.33;12.52;;;;;;;27.84;76.45;100658.69;7395296;19;20014;-51
2022/07/25 05:32:43;;;;;;;15.98;12.23;;;;;;;27.83;75.51;100667.81;7395133;19;20026;-50
2022/07/25 05:35:12;;;;;;;16.15;12.32;;;;;;;27.82;74.28;100658.03;7395163;19;20025;-51
2022/07/25 05:37:41;;;;;;;13.18;11.40;;;;;;;27.81;74.04;100651.81;7392163;19;20104;-49
2022/07/25 05:40:11;;;;;;;15.75;11.70;;;;;;;27.88;73.57;100660.84;7391892;19;20007;-53
2022/07/25 05:42:40;;;;;;;15.50;11.25;;;;;;;27.80;70.85;100660.94;7389623;19;20025;-51
2022/07/25 05:45:09;;;;;;;12.68;10.50;;;;;;;27.88;74.00;100658.16;7394827;19;20014;-51
2022/07/25 05:47:38;;;;;;;14.27;11.57;;;;;;;27.67;73.85;100653.50;7390804;19;20058;-54
2022/07/25 05:50:11;;;;;;;14.25;10.20;;;;;;;27.91;73.49;100655.06;7394438;19;20030;-49
2022/07/25 05:52:40;;;;;;;15.27;11.02;;;;;;;28.03;72.72;100654.63;7391278;19;20070;-49
2022/07/25 05:55:09;;;;;;;13.82;10.73;;;;;;;28.05;68.45;100657.97;7394040;19;20617;-49
2022/07/25 05:57:38;;;;;;;12.65;10.85;;;;;;;28.01;67.88;100654.84;7390804;19;20030;-50
2022/07/25 06:00:08;;;;;;;13.15;9.98;;;;;;;27.93;66.56;100647.63;7393169;19;20010;-48
2022/07/25 06:02:37;;;;;;;11.68;9.90;;;;;;;27.76;65.52;100654.25;7391912;19;20463;-51
2022/07/25 06:05:07;;;;;;;13.23;9.43;;;;;;;27.99;65.54;100653.34;7393354;19;20194;-49
2022/07/25 06:07:38;;;;;;;13.95;10.30;;;;;;;27.53;64.41;100649.75;7391109;19;20026;-52
2022/07/25 06:10:07;;;;;;;15.02;10.55;;;;;;;27.73;63.75;100657.31;7394344;19;20014;-50
2022/07/25 06:12:36;;;;;;;13.57;10.15;;;;;;;27.70;63.89;100666.56;7394266;19;20018;-50
2022/07/25 06:15:06;;;;;;;12.40;9.50;;;;;;;27.95;64.79;100674.38;7393955;19;20014;-50
2022/07/25 06:17:35;;;;;;;13.10;9.85;;;;;;;27.98;63.24;100671.34;7397761;19;20014;-51
2022/07/25 06:20:04;;;;;;;12.90;10.05;;;;;;;27.76;63.51;100673.91;7400761;19;20021;-50
2022/07/25 06:22:33;;;;;;;13.32;10.02;;;;;;;27.53;64.73;100668.59;7398393;19;20028;-46
2022/07/25 06:25:06;;;;;;;14.32;10.23;;;;;;;27.72;63.61;100669.91;7399562;19;20021;-51
2022/07/25 06:27:35;;;;;;;14.57;11.25;;;;;;;27.44;64.85;100661.63;7400725;19;20021;-51
2022/07/25 06:30:05;;;;;;;15.00;10.15;;;;;;;27.56;65.07;100665.53;7400873;19;20022;-47
2022/07/25 06:32:34;;;;;;;14.05;11.40;;;;;;;27.48;66.08;100670.16;7396814;19;20014;-47
2022/07/25 06:35:03;;;;;;;17.00;11.30;;;;;;;27.40;65.93;100681.84;7400466;19;20111;-44
2022/07/25 06:37:32;;;;;;;14.52;11.60;;;;;;;27.13;67.77;100667.91;7397817;19;20003;-48
2022/07/25 06:40:02;;;;;;;13.38;11.98;;;;;;;27.24;69.02;100674.72;7400480;19;20033;-47
2022/07/25 06:42:33;;;;;;;17.15;12.15;;;;;;;27.11;69.50;100675.34;7397762;19;20021;-45
2022/07/25 06:45:05;;;;;;;13.48;11.43;;;;;;;27.25;70.27;100679.06;7399991;19;20011;-44
2022/07/25 06:47:34;;;;;;;17.48;12.38;;;;;;;27.26;69.87;100678.88;7401926;19;20012;-45
2022/07/25 06:50:02;;;;;;;14.50;11.63;;;;;;;27.60;68.95;100674.91;7399878;19;20019;-45
2022/07/25 06:52:31;;;;;;;18.70;11.85;;;;;;;27.64;67.54;100672.72;7399710;19;20017;-46
2022/07/25 06:55:00;;;;;;;19.20;11.80;;;;;;;27.49;68.12;100674.53;7396831;19;20025;-47
2022/07/25 06:57:29;;;;;;;17.38;11.55;;;;;;;27.28;70.02;100666.09;7397677;19;20022;-51
2022/07/25 07:00:04;;;;;;;15.80;11.73;;;;;;;27.41;70.33;100662.84;7399380;19;20086;-46
2022/07/25 07:02:33;;;;;;;15.25;11.85;;;;;;;27.40;69.64;100668.41;7395546;19;20010;-46
2022/07/25 07:05:02;;;;;;;16.73;11.93;;;;;;;26.99;73.15;100679.47;7399900;19;20015;-48
2022/07/25 07:07:31;;;;;;;14.88;11.35;;;;;;;27.32;71.63;100676.50;7395979;19;20040;-47
2022/07/25 07:10:00;;;;;;;15.00;11.38;;;;;;;27.27;71.67;100683.25;7398350;19;20014;-49
2022/07/25 07:12:28;;;;;;;16.33;11.68;;;;;;;27.07;72.62;100674.03;7396224;19;20019;-47
2022/07/25 07:14:57;;;;;;;14.65;11.52;;;;;;;27.06;70.65;100675.03;7398594;19;20018;-47
2022/07/25 07:17:29;;;;;;;14.07;11.77;;;;;;;27.02;72.56;100677.25;7396007;19;20022;-46
2022/07/25 07:19:58;;;;;;;14.60;11.25;;;;;;;26.98;72.55;100658.97;7399357;19;20011;-44
2022/07/25 07:22:27;;;;;;;16.60;12.35;;;;;;;26.95;74.13;100649.38;7398195;19;20015;-44
2022/07/25 07:24:55;;;;;;;17.00;12.15;;;;;;;27.27;73.54;100640.22;7396057;19;20026;-49
2022/07/25 07:27:25;;;;;;;14.45;11.75;;;;;;;27.45;71.52;100649.84;7393248;19;20029;-46
2022/07/25 07:29:53;;;;;;;16.30;10.60;;;;;;;27.56;72.16;100646.69;7399536;19;20017;-44
2022/07/25 07:32:22;;;;;;;17.40;11.20;;;;;;;27.62;70.96;100653.19;7396349;19;20497;-49
2022/07/25 07:34:54;;;;;;;13.65;10.27;;;;;;;27.77;70.55;100645.97;7398716;19;20018;-51
2022/07/25 07:37:23;;;;;;;12.23;9.88;;;;;;;27.97;69.40;100661.56;7398683;19;20014;-47
2022/07/25 07:39:51;;;;;;;12.57;9.48;;;;;;;27.47;69.96;100661.25;7370805;19;20018;-46
2022/07/25 07:42:20;;;;;;;8.85;7.45;;;;;;;27.53;66.45;100657.84;7394808;19;20022;-46
2022/07/25 07:44:49;;;;;;;8.32;7.22;;;;;;;27.72;65.61;100658.31;7397493;19;20517;-47
2022/07/25 07:47:20;;;;;;;7.53;5.63;;;;;;;27.53;62.38;100660.53;7398191;19;20021;-45
2022/07/25 07:49:49;;;;;;;6.95;5.80;;;;;;;27.59;62.95;100657.09;7397198;19;20193;-48
2022/07/25 07:52:20;;;;;;;9.13;5.45;;;;;;;27.92;60.41;100655.91;7395736;19;20006;-45
2022/07/25 07:57:30;;;;;;;7.97;5.60;;;;;;;27.96;59.05;100658.03;7395125;19;20025;-45
2022/07/25 07:59:59;;;;;;;7.18;5.18;;;;;;;28.05;59.34;100658.78;7398077;19;20014;-46
2022/07/25 08:02:28;;;;;;;7.82;5.88;;;;;;;28.29;60.67;100671.13;7397022;19;20010;-49
2022/07/25 08:04:57;;;;;;;10.52;5.60;;;;;;;28.30;59.21;100662.03;7397646;19;20033;-49
2022/07/25 08:07:28;;;;;;;11.68;5.57;;;;;;;28.29;61.85;100663.03;7398722;19;20014;-45
2022/07/25 08:09:57;;;;;;;8.88;6.32;;;;;;;28.25;60.57;100666.31;7398682;19;20010;-49
2022/07/25 08:12:26;;;;;;;6.57;5.65;;;;;;;28.33;59.60;100681.53;7396704;19;21575;-48
2022/07/25 08:14:55;;;;;;;9.25;5.28;;;;;;;28.20;61.41;100682.19;7395704;19;20019;-48
2022/07/25 08:17:24;;;;;;;12.23;5.70;;;;;;;28.11;66.15;100684.16;7395385;19;20145;-46
2022/07/25 08:19:53;;;;;;;7.00;4.97;;;;;;;27.30;73.74;100689.31;7396568;19;20014;-48
2022/07/25 08:22:22;;;;;;;6.38;4.25;;;;;;;26.34;77.75;100687.69;7394262;19;20010;-47
2022/07/25 08:24:53;;;;;;;4.20;3.78;;;;;;;26.11;72.68;100692.19;7397509;19;20022;-45
2022/07/25 08:27:22;;;;;;;8.73;3.28;;;;;;;26.45;74.57;100681.13;7395546;19;20010;-46
2022/07/25 08:29:51;;;;;;;4.90;3.25;;;;;;;26.66;68.95;100682.34;7398084;19;20022;-45
2022/07/25 08:32:20;;;;;;;5.35;3.00;;;;;;;26.85;67.23;100683.75;7398821;19;20022;-50
2022/07/25 08:34:49;;;;;;;4.30;3.40;;;;;;;27.12;67.13;100682.38;7399459;19;20018;-48
2022/07/25 08:37:18;;;;;;;5.90;3.35;;;;;;;27.30;66.14;100684.75;7395643;19;20017;-47
2022/07/25 08:39:47;;;;;;;3.78;2.90;;;;;;;27.40;64.95;100681.84;7399437;19;20352;-46
2022/07/25 08:42:20;;;;;;;5.90;2.63;;;;;;;27.71;63.54;100672.78;7392234;19;20014;-46
2022/07/25 08:44:51;;;;;;;;;;;;;;;27.99;58.53;100674.88;7398753;19;20014;-47
2022/07/25 08:47:20;;;;;;;3.85;2.40;;;;;;;27.85;58.59;100668.44;7395660;19;19914;-48
2022/07/25 08:49:49;;;;;;;3.20;2.33;;;;;;;27.89;58.22;100675.97;7394718;19;20014;-47
2022/07/25 08:52:19;;;;;;;4.53;2.20;;;;;;;27.78;59.29;100685.34;7393166;19;20019;-46
2022/07/25 08:54:49;;;;;;;4.32;2.47;;;;;;;27.91;59.47;100683.84;7396899;19;20018;-47
2022/07/25 08:57:20;;;;;;;4.45;2.60;;;;;;;27.93;62.71;100688.03;7393016;19;20020;-46
2022/07/25 08:59:49;;;;;;;9.82;3.00;;;;;;;27.98;61.22;100682.13;7397081;19;20522;-47
2022/07/25 09:02:18;;;;;;;4.78;2.40;;;;;;;28.08;62.89;100685.38;7396308;19;20010;-48
2022/07/25 09:04:47;;;;;;;2.63;2.20;;;;;;;27.85;61.43;100685.41;7396384;19;20019;-53
2022/07/25 09:07:16;;;;;;;4.97;2.60;;;;;;;28.16;60.61;100694.38;7398487;19;20035;-47
2022/07/25 09:09:45;;;;;;;3.40;2.53;;;;;;;28.17;63.48;100688.81;7394870;19;20021;-48
2022/07/25 09:12:14;;;;;;;5.88;2.42;;;;;;;28.04;64.50;100692.16;7392285;19;20069;-47
2022/07/25 09:14:47;;;;;;;3.53;2.33;;;;;;;27.95;65.03;100690.53;7394906;19;20011;-45
2022/07/25 09:17:16;;;;;;;3.28;2.15;;;;;;;28.24;65.90;100697.81;7393071;19;20018;-49
2022/07/25 09:19:53;;;;;;;2.97;2.08;;;;;;;28.17;66.72;100691.50;7395488;19;20021;-46
2022/07/25 09:22:22;;;;;;;5.28;1.73;;;;;;;28.38;67.79;100706.06;7394400;19;20011;-47
2022/07/25 09:24:51;;;;;;;5.57;1.90;;;;;;;28.38;67.65;100700.66;7395819;19;20025;-47
2022/07/25 09:27:20;;;;;;;8.02;1.85;;;;;;;28.51;67.18;100708.09;7393020;19;20032;-48
2022/07/25 09:29:51;;;;;;;5.43;2.00;;;;;;;28.26;69.35;100716.50;7395502;19;20010;-48
2022/07/25 09:32:22;;;;;;;4.13;1.88;;;;;;;28.17;69.28;100713.06;7393156;19;20014;-50
2022/07/25 09:34:52;;;;;;;3.72;1.73;;;;;;;28.13;75.40;100707.19;7394426;19;20030;-47
2022/07/25 09:37:27;;;;;;;9.57;2.63;;;;;;;27.94;78.83;100713.09;7392513;19;20013;-48
2022/07/25 09:39:56;;;;;;;5.85;1.90;;;;;;;27.66;81.63;100715.59;7392771;19;20049;-51
2022/07/25 09:42:27;;;;;;;3.78;1.77;;;;;;;27.72;76.10;100714.84;7392984;19;20033;-47
2022/07/25 09:45:05;;;;;;;3.60;1.50;;;;;;;27.67;75.96;100719.94;7394787;19;20022;-48
2022/07/25 09:47:37;;;;;;;3.47;1.70;;;;;;;27.75;75.47;100715.34;7392771;19;20010;-48
2022/07/25 09:50:08;;;;;;;5.60;1.83;;;;;;;27.73;76.99;100716.53;7400810;19;20010;-48
2022/07/25 09:52:38;;;;;;;5.07;1.75;;;;;;;28.04;74.60;100724.50;7405963;19;20026;-47
2022/07/25 09:55:09;;;;;;;6.00;1.60;;;;;;;28.06;72.03;100724.31;7408847;19;20025;-48
2022/07/25 09:57:39;;;;;;;2.55;1.30;;;;;;;28.34;68.21;100718.25;7405316;19;20024;-50
2022/07/25 10:00:12;;;;;;;3.78;1.48;;;;;;;28.42;67.46;100727.06;7409734;19;20134;-46
2022/07/25 10:02:48;;;;;;;6.15;1.40;;;;;;;28.65;66.47;100732.34;7407004;19;20344;-51
2022/07/25 10:05:20;;;;;;;4.07;1.25;;;;;;;28.64;66.16;100732.53;7407702;19;20064;-49
2022/07/25 10:07:52;;;;;;;3.28;1.40;;;;;;;28.39;67.92;100730.13;7408725;19;20034;-46
2022/07/25 10:10:27;;;;;;;4.47;1.60;;;;;;;28.59;67.64;100730.38;7408853;19;20506;-48
2022/07/25 10:13:04;;;;;;;3.05;1.40;;;;;;;28.63;67.24;100729.00;7405474;19;20022;-47
2022/07/25 10:15:48;;;;;;;3.92;1.38;;;;;;;28.72;64.17;100737.00;7408009;19;20014;-51
2022/07/25 10:18:18;;;;;;;4.82;2.10;;;;;;;28.95;65.46;100731.44;7404455;19;20017;-51
2022/07/25 10:20:49;;;;;;;3.30;1.60;;;;;;;28.77;65.40;100739.94;7404821;19;20026;-49
2022/07/25 10:23:22;;;;;;;3.38;1.55;;;;;;;28.37;67.28;100736.72;7405701;19;20022;-46
2022/07/25 10:26:02;;;;;;;7.53;2.30;;;;;;;28.57;67.55;100740.53;7406687;19;20089;-48
2022/07/25 10:28:46;;;;;;;4.78;1.58;;;;;;;29.01;66.67;100749.53;7405369;19;20018;-47
2022/07/25 10:31:40;;;;;;;8.85;2.00;;;;;;;28.58;68.85;100738.66;7404333;19;20003;-49
2022/07/25 10:34:12;;;;;;;8.98;2.40;;;;;;;28.30;69.78;100742.03;7405881;19;20018;-45
2022/07/25 10:36:46;;;;;;;5.50;1.80;;;;;;;28.55;69.04;100752.50;7404095;19;20085;-48
2022/07/25 10:39:17;;;;;;;5.63;2.45;;;;;;;28.64;68.33;100756.78;7407530;19;20482;-47
2022/07/25 10:41:53;;;;;;;6.57;2.50;;;;;;;28.63;67.74;100761.38;7405666;19;20029;-49
2022/07/25 10:44:22;;;;;;;7.38;2.25;;;;;;;28.28;66.63;100747.63;7404837;19;20019;-51
2022/07/25 10:47:06;;;;;;;5.63;2.10;;;;;;;28.78;65.13;100753.22;7403315;19;20229;-48
2022/07/25 10:49:38;;;;;;;4.05;1.88;;;;;;;28.92;60.38;100748.81;7406075;19;20014;-47
2022/07/25 10:52:08;;;;;;;6.05;2.08;;;;;;;28.64;60.42;100754.94;7408488;19;20018;-47
2022/07/25 10:54:38;;;;;;;5.03;2.08;;;;;;;28.86;61.45;100751.44;7407596;19;20023;-51
2022/07/25 10:57:16;;;;;;;4.95;2.05;;;;;;;29.05;56.26;100761.63;7403969;19;20074;-47
2022/07/25 10:59:45;;;;;;;5.22;1.90;;;;;;;29.15;57.31;100766.72;7404275;19;20030;-49
2022/07/25 11:02:17;;;;;;;5.30;2.13;;;;;;;29.13;60.72;100766.91;7401894;19;20018;-48
2022/07/25 11:04:47;;;;;;;;;;;;;;;29.20;62.27;100766.13;7401019;19;20025;-48
2022/07/25 11:07:17;;;;;;;3.72;2.17;;;;;;;29.00;58.23;100772.16;7398182;19;19907;-50
2022/07/25 11:09:57;;;;;;;7.35;2.03;;;;;;;29.28;55.33;100764.16;7398827;19;20011;-51
2022/07/25 11:12:26;;;;;;;5.25;1.90;;;;;;;29.61;52.86;100773.59;7400809;19;20011;-51
2022/07/25 11:15:01;;;;;;;4.97;2.00;;;;;;;29.11;57.08;100768.94;7399654;19;20057;-51
2022/07/25 11:17:33;;;;;;;5.55;2.10;;;;;;;28.98;57.86;100777.72;7401053;19;20018;-47
2022/07/25 11:20:03;;;;;;;6.27;2.30;;;;;;;28.86;60.22;100773.03;7395634;19;20050;-48
2022/07/25 11:22:34;;;;;;;5.68;2.30;;;;;;;28.91;59.59;100776.81;7395972;19;20851;-47
2022/07/25 11:25:05;;;;;;;5.65;2.40;;;;;;;29.42;58.34;100775.94;7397377;19;20033;-55
2022/07/25 11:27:35;;;;;;;6.13;1.98;;;;;;;29.37;59.86;100785.63;7396538;19;20124;-48
2022/07/25 11:30:08;;;;;;;5.47;2.05;;;;;;;29.06;60.63;100797.53;7398983;19;20025;-48
2022/07/25 11:32:44;;;;;;;6.65;2.22;;;;;;;29.05;61.00;100788.59;7399525;19;20119;-49
2022/07/25 11:35:16;;;;;;;6.30;2.17;;;;;;;28.61;60.87;100789.50;7399026;19;20018;-50